sensor_id;sensor_type;location;lat;lon;timestamp;temperature;humidity
21207;DHT22;10761;48.532;8.026;2024-01-30T00:01:05;5.90;1.00
21207;DHT22;10761;48.532;8.026;2024-01-30T00:03:30;5.80;1.00
21207;DHT22;10761;48.532;8.026;2024-01-30T00:05:56;5.70;1.00
21207;DHT22;10761;48.532;8.026;2024-01-30T00:08:21;5.50;1.00
21207;DHT22;10761;48.532;8.026;2024-01-30T00:10:47;5.40;1.00
21207;DHT22;10761;48.532;8.026;2024-01-30T00:13:13;5.30;1.00
21207;DHT22;10761;48.532;8.026;2024-01-30T00:15:39;5.20;1.00
21207;DHT22;10761;48.532;8.026;2024-01-30T00:18:05;5.20;1.00
21207;DHT22;10761;48.532;8.026;2024-01-30T00:20:30;5.20;1.00
21207;DHT22;10761;48.532;8.026;2024-01-30T00:22:56;5.10;1.00
21207;DHT22;10761;48.532;8.026;2024-01-30T00:25:21;5.00;1.00
21207;DHT22;10761;48.532;8.026;2024-01-30T00:27:47;4.90;1.00
21207;DHT22;10761;48.532;8.026;2024-01-30T00:30:13;4.90;1.00
21207;DHT22;10761;48.532;8.026;2024-01-30T00:32:39;4.80;1.00
21207;DHT22;10761;48.532;8.026;2024-01-30T00:35:04;4.70;1.00
21207;DHT22;10761;48.532;8.026;2024-01-30T00:37:30;4.70;1.00
21207;DHT22;10761;48.532;8.026;2024-01-30T00:39:57;4.60;1.00
21207;DHT22;10761;48.532;8.026;2024-01-30T00:42:22;4.50;1.00
21207;DHT22;10761;48.532;8.026;2024-01-30T00:44:49;4.50;1.00
21207;DHT22;10761;48.532;8.026;2024-01-30T00:47:15;4.50;1.00
21207;DHT22;10761;48.532;8.026;2024-01-30T00:49:40;4.50;1.00
21207;DHT22;10761;48.532;8.026;2024-01-30T00:52:06;4.40;1.00
21207;DHT22;10761;48.532;8.026;2024-01-30T00:54:32;4.40;22.80
21207;DHT22;10761;48.532;8.026;2024-01-30T00:56:57;4.30;2.70
21207;DHT22;10761;48.532;8.026;2024-01-30T00:59:23;4.30;12.50
21207;DHT22;10761;48.532;8.026;2024-01-30T01:01:49;4.30;58.60
21207;DHT22;10761;48.532;8.026;2024-01-30T01:04:14;4.30;73.70
21207;DHT22;10761;48.532;8.026;2024-01-30T01:06:40;4.20;39.10
21207;DHT22;10761;48.532;8.026;2024-01-30T01:09:08;4.40;99.90
21207;DHT22;10761;48.532;8.026;2024-01-30T01:11:33;4.40;89.90
21207;DHT22;10761;48.532;8.026;2024-01-30T01:13:59;4.40;99.90
21207;DHT22;10761;48.532;8.026;2024-01-30T01:16:24;4.40;89.10
21207;DHT22;10761;48.532;8.026;2024-01-30T01:18:50;4.40;47.90
21207;DHT22;10761;48.532;8.026;2024-01-30T01:21:15;4.30;46.00
21207;DHT22;10761;48.532;8.026;2024-01-30T01:23:41;4.20;90.80
21207;DHT22;10761;48.532;8.026;2024-01-30T01:26:08;4.20;37.10
21207;DHT22;10761;48.532;8.026;2024-01-30T01:28:35;4.00;66.20
21207;DHT22;10761;48.532;8.026;2024-01-30T01:31:00;4.00;99.90
21207;DHT22;10761;48.532;8.026;2024-01-30T01:33:34;4.00;99.90
21207;DHT22;10761;48.532;8.026;2024-01-30T01:36:01;4.00;99.90
21207;DHT22;10761;48.532;8.026;2024-01-30T01:38:29;4.00;99.90
21207;DHT22;10761;48.532;8.026;2024-01-30T01:40:55;4.00;99.70
21207;DHT22;10761;48.532;8.026;2024-01-30T01:43:21;4.10;99.90
21207;DHT22;10761;48.532;8.026;2024-01-30T01:45:46;4.00;94.40
21207;DHT22;10761;48.532;8.026;2024-01-30T01:48:12;3.90;99.90
21207;DHT22;10761;48.532;8.026;2024-01-30T01:50:38;4.00;99.90
21207;DHT22;10761;48.532;8.026;2024-01-30T01:53:07;3.90;99.90
21207;DHT22;10761;48.532;8.026;2024-01-30T01:55:34;3.90;73.60
21207;DHT22;10761;48.532;8.026;2024-01-30T01:58:00;3.90;99.90
21207;DHT22;10761;48.532;8.026;2024-01-30T02:00:27;3.80;99.90
21207;DHT22;10761;48.532;8.026;2024-01-30T02:02:53;3.80;99.90
21207;DHT22;10761;48.532;8.026;2024-01-30T02:05:19;3.80;99.90
21207;DHT22;10761;48.532;8.026;2024-01-30T02:07:46;3.80;99.90
21207;DHT22;10761;48.532;8.026;2024-01-30T02:10:12;3.80;99.90
21207;DHT22;10761;48.532;8.026;2024-01-30T02:12:38;3.90;99.90
21207;DHT22;10761;48.532;8.026;2024-01-30T02:15:04;3.90;99.90
21207;DHT22;10761;48.532;8.026;2024-01-30T02:17:30;3.90;99.90
21207;DHT22;10761;48.532;8.026;2024-01-30T02:19:56;3.80;94.20
21207;DHT22;10761;48.532;8.026;2024-01-30T02:22:22;3.70;87.10
21207;DHT22;10761;48.532;8.026;2024-01-30T02:24:49;3.70;99.90
21207;DHT22;10761;48.532;8.026;2024-01-30T02:27:14;3.60;99.90
21207;DHT22;10761;48.532;8.026;2024-01-30T02:29:40;3.50;99.90
21207;DHT22;10761;48.532;8.026;2024-01-30T02:32:06;3.50;99.90
21207;DHT22;10761;48.532;8.026;2024-01-30T02:34:33;3.40;99.90
21207;DHT22;10761;48.532;8.026;2024-01-30T02:36:58;3.30;99.90
21207;DHT22;10761;48.532;8.026;2024-01-30T02:39:24;3.30;99.90
21207;DHT22;10761;48.532;8.026;2024-01-30T02:41:49;3.30;99.90
21207;DHT22;10761;48.532;8.026;2024-01-30T02:44:15;3.30;99.90
21207;DHT22;10761;48.532;8.026;2024-01-30T02:46:41;3.30;99.90
21207;DHT22;10761;48.532;8.026;2024-01-30T02:49:06;3.20;96.70
21207;DHT22;10761;48.532;8.026;2024-01-30T02:51:32;3.10;99.90
21207;DHT22;10761;48.532;8.026;2024-01-30T02:53:57;3.10;99.90
21207;DHT22;10761;48.532;8.026;2024-01-30T02:56:23;3.10;99.90
21207;DHT22;10761;48.532;8.026;2024-01-30T02:58:49;3.10;99.90
21207;DHT22;10761;48.532;8.026;2024-01-30T03:01:14;3.10;99.90
21207;DHT22;10761;48.532;8.026;2024-01-30T03:03:40;3.10;99.90
21207;DHT22;10761;48.532;8.026;2024-01-30T03:06:06;3.10;99.90
21207;DHT22;10761;48.532;8.026;2024-01-30T03:08:32;3.10;99.90
21207;DHT22;10761;48.532;8.026;2024-01-30T03:10:58;3.10;99.90
21207;DHT22;10761;48.532;8.026;2024-01-30T03:13:23;3.10;99.90
21207;DHT22;10761;48.532;8.026;2024-01-30T03:15:50;3.00;99.90
21207;DHT22;10761;48.532;8.026;2024-01-30T03:18:16;3.00;99.90
21207;DHT22;10761;48.532;8.026;2024-01-30T03:20:41;2.90;99.90
21207;DHT22;10761;48.532;8.026;2024-01-30T03:23:07;3.00;99.90
21207;DHT22;10761;48.532;8.026;2024-01-30T03:25:32;3.00;99.90
21207;DHT22;10761;48.532;8.026;2024-01-30T03:27:58;3.00;99.90
21207;DHT22;10761;48.532;8.026;2024-01-30T03:30:24;3.00;99.90
21207;DHT22;10761;48.532;8.026;2024-01-30T03:32:49;3.00;99.90
21207;DHT22;10761;48.532;8.026;2024-01-30T03:35:15;3.00;99.90
21207;DHT22;10761;48.532;8.026;2024-01-30T03:37:41;3.10;99.90
21207;DHT22;10761;48.532;8.026;2024-01-30T03:40:07;3.20;99.90
21207;DHT22;10761;48.532;8.026;2024-01-30T03:42:33;3.20;99.90
21207;DHT22;10761;48.532;8.026;2024-01-30T03:44:58;3.30;99.90
21207;DHT22;10761;48.532;8.026;2024-01-30T03:47:24;3.30;99.90
21207;DHT22;10761;48.532;8.026;2024-01-30T03:49:49;3.30;99.90
21207;DHT22;10761;48.532;8.026;2024-01-30T03:52:15;3.30;99.90
21207;DHT22;10761;48.532;8.026;2024-01-30T03:54:40;3.20;99.90
21207;DHT22;10761;48.532;8.026;2024-01-30T03:57:06;3.20;99.90
21207;DHT22;10761;48.532;8.026;2024-01-30T03:59:32;3.20;99.90
21207;DHT22;10761;48.532;8.026;2024-01-30T04:01:57;3.10;99.90
21207;DHT22;10761;48.532;8.026;2024-01-30T04:04:23;3.10;99.90
21207;DHT22;10761;48.532;8.026;2024-01-30T04:06:48;3.10;99.90
21207;DHT22;10761;48.532;8.026;2024-01-30T04:09:14;3.10;99.90
21207;DHT22;10761;48.532;8.026;2024-01-30T04:11:40;3.10;99.90
21207;DHT22;10761;48.532;8.026;2024-01-30T04:14:07;3.10;99.90
21207;DHT22;10761;48.532;8.026;2024-01-30T04:16:33;3.20;99.90
21207;DHT22;10761;48.532;8.026;2024-01-30T04:18:58;3.10;99.90
21207;DHT22;10761;48.532;8.026;2024-01-30T04:21:24;3.20;99.90
21207;DHT22;10761;48.532;8.026;2024-01-30T04:23:51;3.10;99.90
21207;DHT22;10761;48.532;8.026;2024-01-30T04:26:17;3.10;99.90
21207;DHT22;10761;48.532;8.026;2024-01-30T04:28:44;3.20;99.90
21207;DHT22;10761;48.532;8.026;2024-01-30T04:31:10;3.20;99.90
21207;DHT22;10761;48.532;8.026;2024-01-30T04:33:36;3.30;99.90
21207;DHT22;10761;48.532;8.026;2024-01-30T04:36:02;3.40;99.90
21207;DHT22;10761;48.532;8.026;2024-01-30T04:38:28;3.60;99.90
21207;DHT22;10761;48.532;8.026;2024-01-30T04:40:54;3.70;99.90
21207;DHT22;10761;48.532;8.026;2024-01-30T04:43:19;3.60;99.90
21207;DHT22;10761;48.532;8.026;2024-01-30T04:45:45;3.60;99.90
21207;DHT22;10761;48.532;8.026;2024-01-30T04:48:10;3.60;99.90
21207;DHT22;10761;48.532;8.026;2024-01-30T04:50:36;3.60;99.90
21207;DHT22;10761;48.532;8.026;2024-01-30T04:53:02;3.60;99.90
21207;DHT22;10761;48.532;8.026;2024-01-30T04:55:27;3.60;99.90
21207;DHT22;10761;48.532;8.026;2024-01-30T04:57:53;3.70;99.90
21207;DHT22;10761;48.532;8.026;2024-01-30T05:00:18;3.80;99.90
21207;DHT22;10761;48.532;8.026;2024-01-30T05:02:44;3.90;99.90
21207;DHT22;10761;48.532;8.026;2024-01-30T05:05:10;4.10;99.90
21207;DHT22;10761;48.532;8.026;2024-01-30T05:07:36;4.30;17.90
21207;DHT22;10761;48.532;8.026;2024-01-30T05:10:02;4.30;1.00
21207;DHT22;10761;48.532;8.026;2024-01-30T05:12:28;4.20;1.00
21207;DHT22;10761;48.532;8.026;2024-01-30T05:14:54;4.10;1.00
21207;DHT22;10761;48.532;8.026;2024-01-30T05:17:19;4.00;16.20
21207;DHT22;10761;48.532;8.026;2024-01-30T05:19:45;4.10;13.60
21207;DHT22;10761;48.532;8.026;2024-01-30T05:22:11;4.20;1.00
21207;DHT22;10761;48.532;8.026;2024-01-30T05:24:43;4.30;1.00
21207;DHT22;10761;48.532;8.026;2024-01-30T05:27:09;4.70;1.00
21207;DHT22;10761;48.532;8.026;2024-01-30T05:29:34;4.80;1.00
21207;DHT22;10761;48.532;8.026;2024-01-30T05:32:00;5.10;99.90
21207;DHT22;10761;48.532;8.026;2024-01-30T05:34:25;5.30;1.00
21207;DHT22;10761;48.532;8.026;2024-01-30T05:36:51;5.50;1.00
21207;DHT22;10761;48.532;8.026;2024-01-30T05:39:16;6.00;1.00
21207;DHT22;10761;48.532;8.026;2024-01-30T05:41:42;6.20;99.90
21207;DHT22;10761;48.532;8.026;2024-01-30T05:44:08;6.30;1.00
21207;DHT22;10761;48.532;8.026;2024-01-30T05:46:34;6.50;1.00
21207;DHT22;10761;48.532;8.026;2024-01-30T05:49:00;6.70;99.90
21207;DHT22;10761;48.532;8.026;2024-01-30T05:51:26;6.70;99.90
21207;DHT22;10761;48.532;8.026;2024-01-30T05:53:51;6.90;1.00
21207;DHT22;10761;48.532;8.026;2024-01-30T05:56:17;7.00;1.00
21207;DHT22;10761;48.532;8.026;2024-01-30T05:58:42;7.00;1.00
21207;DHT22;10761;48.532;8.026;2024-01-30T06:01:08;7.00;1.00
21207;DHT22;10761;48.532;8.026;2024-01-30T06:03:34;7.20;99.90
21207;DHT22;10761;48.532;8.026;2024-01-30T06:06:00;7.30;1.00
21207;DHT22;10761;48.532;8.026;2024-01-30T06:08:26;7.30;99.90
21207;DHT22;10761;48.532;8.026;2024-01-30T06:10:51;7.40;1.00
21207;DHT22;10761;48.532;8.026;2024-01-30T06:13:17;7.40;1.00
21207;DHT22;10761;48.532;8.026;2024-01-30T06:15:43;7.30;1.00
21207;DHT22;10761;48.532;8.026;2024-01-30T06:18:09;7.30;1.00
21207;DHT22;10761;48.532;8.026;2024-01-30T06:20:34;7.40;1.00
21207;DHT22;10761;48.532;8.026;2024-01-30T06:23:00;7.30;44.20
21207;DHT22;10761;48.532;8.026;2024-01-30T06:25:26;7.30;1.00
21207;DHT22;10761;48.532;8.026;2024-01-30T06:27:52;7.40;1.00
21207;DHT22;10761;48.532;8.026;2024-01-30T06:30:18;7.50;1.00
21207;DHT22;10761;48.532;8.026;2024-01-30T06:32:43;7.50;1.00
21207;DHT22;10761;48.532;8.026;2024-01-30T06:35:09;7.40;99.90
21207;DHT22;10761;48.532;8.026;2024-01-30T06:37:36;7.30;11.20
21207;DHT22;10761;48.532;8.026;2024-01-30T06:40:01;7.40;30.20
21207;DHT22;10761;48.532;8.026;2024-01-30T06:42:27;7.40;1.00
21207;DHT22;10761;48.532;8.026;2024-01-30T06:44:53;7.50;1.00
21207;DHT22;10761;48.532;8.026;2024-01-30T06:47:19;7.50;1.00
21207;DHT22;10761;48.532;8.026;2024-01-30T06:49:44;7.30;99.90
21207;DHT22;10761;48.532;8.026;2024-01-30T06:52:10;7.30;99.90
21207;DHT22;10761;48.532;8.026;2024-01-30T06:54:36;7.10;1.00
21207;DHT22;10761;48.532;8.026;2024-01-30T06:57:02;7.00;1.00
21207;DHT22;10761;48.532;8.026;2024-01-30T06:59:27;6.90;1.00
21207;DHT22;10761;48.532;8.026;2024-01-30T07:01:53;6.80;99.90
21207;DHT22;10761;48.532;8.026;2024-01-30T07:04:19;6.80;1.00
21207;DHT22;10761;48.532;8.026;2024-01-30T07:06:44;6.80;99.90
21207;DHT22;10761;48.532;8.026;2024-01-30T07:09:10;6.70;1.00
21207;DHT22;10761;48.532;8.026;2024-01-30T07:11:35;6.70;99.90
21207;DHT22;10761;48.532;8.026;2024-01-30T07:14:01;6.70;99.90
21207;DHT22;10761;48.532;8.026;2024-01-30T07:16:30;6.90;99.90
21207;DHT22;10761;48.532;8.026;2024-01-30T07:18:55;6.90;99.90
21207;DHT22;10761;48.532;8.026;2024-01-30T07:21:22;6.80;1.00
21207;DHT22;10761;48.532;8.026;2024-01-30T07:23:53;6.60;1.00
21207;DHT22;10761;48.532;8.026;2024-01-30T07:26:19;6.40;99.90
21207;DHT22;10761;48.532;8.026;2024-01-30T07:28:44;6.20;95.90
21207;DHT22;10761;48.532;8.026;2024-01-30T07:31:10;6.00;1.00
21207;DHT22;10761;48.532;8.026;2024-01-30T07:33:36;5.80;99.90
21207;DHT22;10761;48.532;8.026;2024-01-30T07:36:01;5.70;1.00
21207;DHT22;10761;48.532;8.026;2024-01-30T07:38:27;5.50;1.00
21207;DHT22;10761;48.532;8.026;2024-01-30T07:40:52;5.40;1.00
21207;DHT22;10761;48.532;8.026;2024-01-30T07:43:18;5.30;99.90
21207;DHT22;10761;48.532;8.026;2024-01-30T07:45:45;5.20;99.90
21207;DHT22;10761;48.532;8.026;2024-01-30T07:48:11;5.10;99.90
21207;DHT22;10761;48.532;8.026;2024-01-30T07:50:36;5.10;99.90
21207;DHT22;10761;48.532;8.026;2024-01-30T07:53:02;5.00;99.90
21207;DHT22;10761;48.532;8.026;2024-01-30T07:55:28;5.10;99.90
21207;DHT22;10761;48.532;8.026;2024-01-30T07:57:55;5.10;1.00
21207;DHT22;10761;48.532;8.026;2024-01-30T08:00:21;5.00;1.00
21207;DHT22;10761;48.532;8.026;2024-01-30T08:02:47;5.00;1.00
21207;DHT22;10761;48.532;8.026;2024-01-30T08:05:13;5.00;1.00
21207;DHT22;10761;48.532;8.026;2024-01-30T08:07:43;5.10;99.90
21207;DHT22;10761;48.532;8.026;2024-01-30T08:10:10;5.10;1.00
21207;DHT22;10761;48.532;8.026;2024-01-30T08:12:36;5.20;1.00
21207;DHT22;10761;48.532;8.026;2024-01-30T08:15:02;5.40;99.90
21207;DHT22;10761;48.532;8.026;2024-01-30T08:17:28;5.50;99.90
21207;DHT22;10761;48.532;8.026;2024-01-30T08:19:54;5.60;1.00
21207;DHT22;10761;48.532;8.026;2024-01-30T08:22:19;5.60;99.90
21207;DHT22;10761;48.532;8.026;2024-01-30T08:24:45;5.60;99.90
21207;DHT22;10761;48.532;8.026;2024-01-30T08:27:10;5.80;1.00
21207;DHT22;10761;48.532;8.026;2024-01-30T08:29:37;5.90;1.00
21207;DHT22;10761;48.532;8.026;2024-01-30T08:32:05;6.00;1.00
21207;DHT22;10761;48.532;8.026;2024-01-30T08:34:30;6.10;50.10
21207;DHT22;10761;48.532;8.026;2024-01-30T08:36:56;6.20;99.90
21207;DHT22;10761;48.532;8.026;2024-01-30T08:39:22;6.20;1.00
21207;DHT22;10761;48.532;8.026;2024-01-30T08:41:47;6.30;99.90
21207;DHT22;10761;48.532;8.026;2024-01-30T08:44:13;6.40;1.00
21207;DHT22;10761;48.532;8.026;2024-01-30T08:46:38;6.50;99.90
21207;DHT22;10761;48.532;8.026;2024-01-30T08:49:04;6.70;1.00
21207;DHT22;10761;48.532;8.026;2024-01-30T08:51:30;6.70;1.00
21207;DHT22;10761;48.532;8.026;2024-01-30T08:53:56;6.80;99.90
21207;DHT22;10761;48.532;8.026;2024-01-30T08:56:21;6.80;1.00
21207;DHT22;10761;48.532;8.026;2024-01-30T08:58:47;6.70;99.90
21207;DHT22;10761;48.532;8.026;2024-01-30T09:01:13;6.60;99.90
21207;DHT22;10761;48.532;8.026;2024-01-30T09:03:39;6.60;1.00
21207;DHT22;10761;48.532;8.026;2024-01-30T09:06:15;6.50;1.00
21207;DHT22;10761;48.532;8.026;2024-01-30T09:08:41;6.50;1.00
21207;DHT22;10761;48.532;8.026;2024-01-30T09:11:11;6.40;1.00
21207;DHT22;10761;48.532;8.026;2024-01-30T09:13:37;6.50;1.00
21207;DHT22;10761;48.532;8.026;2024-01-30T09:16:03;6.60;1.00
21207;DHT22;10761;48.532;8.026;2024-01-30T09:18:29;6.70;1.00
21207;DHT22;10761;48.532;8.026;2024-01-30T09:20:54;6.70;1.00
21207;DHT22;10761;48.532;8.026;2024-01-30T09:23:20;6.90;21.40
21207;DHT22;10761;48.532;8.026;2024-01-30T09:25:46;7.00;1.00
21207;DHT22;10761;48.532;8.026;2024-01-30T09:28:11;7.20;1.00
21207;DHT22;10761;48.532;8.026;2024-01-30T09:30:37;7.30;56.90
21207;DHT22;10761;48.532;8.026;2024-01-30T09:33:02;7.40;99.90
21207;DHT22;10761;48.532;8.026;2024-01-30T09:35:28;7.60;1.00
21207;DHT22;10761;48.532;8.026;2024-01-30T09:37:55;7.70;22.80
21207;DHT22;10761;48.532;8.026;2024-01-30T09:40:21;7.90;1.00
21207;DHT22;10761;48.532;8.026;2024-01-30T09:42:47;8.10;1.00
21207;DHT22;10761;48.532;8.026;2024-01-30T09:45:17;8.40;1.00
21207;DHT22;10761;48.532;8.026;2024-01-30T09:47:44;8.40;99.90
21207;DHT22;10761;48.532;8.026;2024-01-30T09:50:11;8.50;1.00
21207;DHT22;10761;48.532;8.026;2024-01-30T09:52:37;8.60;99.90
21207;DHT22;10761;48.532;8.026;2024-01-30T09:55:04;8.60;1.00
21207;DHT22;10761;48.532;8.026;2024-01-30T09:57:29;8.70;1.00
21207;DHT22;10761;48.532;8.026;2024-01-30T09:59:55;8.80;1.00
21207;DHT22;10761;48.532;8.026;2024-01-30T10:02:21;9.00;43.20
21207;DHT22;10761;48.532;8.026;2024-01-30T10:04:48;9.10;1.00
21207;DHT22;10761;48.532;8.026;2024-01-30T10:07:15;9.30;99.90
21207;DHT22;10761;48.532;8.026;2024-01-30T10:09:40;9.60;99.90
21207;DHT22;10761;48.532;8.026;2024-01-30T10:12:06;9.70;1.00
21207;DHT22;10761;48.532;8.026;2024-01-30T10:14:33;9.90;47.20
21207;DHT22;10761;48.532;8.026;2024-01-30T10:16:58;10.10;99.90
21207;DHT22;10761;48.532;8.026;2024-01-30T10:19:24;10.20;99.90
21207;DHT22;10761;48.532;8.026;2024-01-30T10:21:50;10.20;99.90
21207;DHT22;10761;48.532;8.026;2024-01-30T10:24:16;10.30;1.00
21207;DHT22;10761;48.532;8.026;2024-01-30T10:26:44;10.30;99.90
21207;DHT22;10761;48.532;8.026;2024-01-30T10:29:09;10.40;1.00
21207;DHT22;10761;48.532;8.026;2024-01-30T10:31:35;10.50;1.00
21207;DHT22;10761;48.532;8.026;2024-01-30T10:34:00;10.60;99.90
21207;DHT22;10761;48.532;8.026;2024-01-30T10:36:28;10.70;1.00
21207;DHT22;10761;48.532;8.026;2024-01-30T10:38:56;10.90;1.00
21207;DHT22;10761;48.532;8.026;2024-01-30T10:41:27;11.00;1.00
21207;DHT22;10761;48.532;8.026;2024-01-30T10:44:05;11.00;1.00
21207;DHT22;10761;48.532;8.026;2024-01-30T10:46:33;11.00;1.00
21207;DHT22;10761;48.532;8.026;2024-01-30T10:49:00;10.90;99.90
21207;DHT22;10761;48.532;8.026;2024-01-30T10:51:27;10.90;1.00
21207;DHT22;10761;48.532;8.026;2024-01-30T10:53:53;11.00;80.50
21207;DHT22;10761;48.532;8.026;2024-01-30T10:56:23;11.10;99.90
21207;DHT22;10761;48.532;8.026;2024-01-30T10:58:52;11.00;13.00
21207;DHT22;10761;48.532;8.026;2024-01-30T11:01:20;11.10;99.90
21207;DHT22;10761;48.532;8.026;2024-01-30T11:03:51;11.30;97.80
21207;DHT22;10761;48.532;8.026;2024-01-30T11:06:17;11.40;1.00
21207;DHT22;10761;48.532;8.026;2024-01-30T11:08:59;11.60;1.00
21207;DHT22;10761;48.532;8.026;2024-01-30T11:11:25;12.00;1.00
21207;DHT22;10761;48.532;8.026;2024-01-30T11:13:50;12.70;1.00
21207;DHT22;10761;48.532;8.026;2024-01-30T11:16:17;13.80;1.00
21207;DHT22;10761;48.532;8.026;2024-01-30T11:18:42;14.60;1.00
21207;DHT22;10761;48.532;8.026;2024-01-30T11:21:08;15.20;1.00
21207;DHT22;10761;48.532;8.026;2024-01-30T11:23:34;15.80;1.00
21207;DHT22;10761;48.532;8.026;2024-01-30T11:26:00;16.30;1.00
21207;DHT22;10761;48.532;8.026;2024-01-30T11:28:32;15.60;1.00
21207;DHT22;10761;48.532;8.026;2024-01-30T11:31:07;15.20;1.00
21207;DHT22;10761;48.532;8.026;2024-01-30T11:33:33;14.50;1.00
21207;DHT22;10761;48.532;8.026;2024-01-30T11:36:00;14.00;1.00
21207;DHT22;10761;48.532;8.026;2024-01-30T11:38:27;13.40;1.00
21207;DHT22;10761;48.532;8.026;2024-01-30T11:40:56;12.90;1.00
21207;DHT22;10761;48.532;8.026;2024-01-30T11:43:22;12.50;1.00
21207;DHT22;10761;48.532;8.026;2024-01-30T11:45:49;12.30;1.00
21207;DHT22;10761;48.532;8.026;2024-01-30T11:48:15;12.30;89.50
21207;DHT22;10761;48.532;8.026;2024-01-30T11:50:40;12.50;99.90
21207;DHT22;10761;48.532;8.026;2024-01-30T11:53:06;12.60;99.90
21207;DHT22;10761;48.532;8.026;2024-01-30T11:55:32;12.80;98.60
21207;DHT22;10761;48.532;8.026;2024-01-30T11:57:58;13.00;1.00
21207;DHT22;10761;48.532;8.026;2024-01-30T12:00:24;13.30;1.00
21207;DHT22;10761;48.532;8.026;2024-01-30T12:02:51;13.50;1.00
21207;DHT22;10761;48.532;8.026;2024-01-30T12:05:24;13.70;1.00
21207;DHT22;10761;48.532;8.026;2024-01-30T12:07:50;13.60;1.00
21207;DHT22;10761;48.532;8.026;2024-01-30T12:10:16;13.60;1.00
21207;DHT22;10761;48.532;8.026;2024-01-30T12:12:47;13.60;1.00
21207;DHT22;10761;48.532;8.026;2024-01-30T12:15:14;13.60;1.00
21207;DHT22;10761;48.532;8.026;2024-01-30T12:17:40;13.70;1.00
21207;DHT22;10761;48.532;8.026;2024-01-30T12:20:13;13.60;1.00
21207;DHT22;10761;48.532;8.026;2024-01-30T12:22:41;13.60;1.00
21207;DHT22;10761;48.532;8.026;2024-01-30T12:25:12;13.50;1.00
21207;DHT22;10761;48.532;8.026;2024-01-30T12:27:39;13.60;1.00
21207;DHT22;10761;48.532;8.026;2024-01-30T12:30:09;13.40;1.00
21207;DHT22;10761;48.532;8.026;2024-01-30T12:32:36;13.60;1.00
21207;DHT22;10761;48.532;8.026;2024-01-30T12:35:02;13.90;1.00
21207;DHT22;10761;48.532;8.026;2024-01-30T12:37:28;15.00;1.00
21207;DHT22;10761;48.532;8.026;2024-01-30T12:39:55;16.30;1.00
21207;DHT22;10761;48.532;8.026;2024-01-30T12:42:20;17.20;99.90
21207;DHT22;10761;48.532;8.026;2024-01-30T12:44:50;17.90;99.90
21207;DHT22;10761;48.532;8.026;2024-01-30T12:47:16;18.00;99.90
21207;DHT22;10761;48.532;8.026;2024-01-30T12:49:45;18.00;99.90
21207;DHT22;10761;48.532;8.026;2024-01-30T12:52:12;17.20;99.90
21207;DHT22;10761;48.532;8.026;2024-01-30T12:54:38;16.20;99.90
21207;DHT22;10761;48.532;8.026;2024-01-30T12:57:05;15.60;99.90
21207;DHT22;10761;48.532;8.026;2024-01-30T12:59:31;15.30;99.90
21207;DHT22;10761;48.532;8.026;2024-01-30T13:01:56;14.90;99.90
21207;DHT22;10761;48.532;8.026;2024-01-30T13:04:22;14.60;99.90
21207;DHT22;10761;48.532;8.026;2024-01-30T13:06:48;14.40;99.90
21207;DHT22;10761;48.532;8.026;2024-01-30T13:09:14;14.20;99.90
21207;DHT22;10761;48.532;8.026;2024-01-30T13:11:40;14.10;99.90
21207;DHT22;10761;48.532;8.026;2024-01-30T13:14:05;14.00;99.90
21207;DHT22;10761;48.532;8.026;2024-01-30T13:16:31;13.80;1.00
21207;DHT22;10761;48.532;8.026;2024-01-30T13:18:57;13.70;1.00
21207;DHT22;10761;48.532;8.026;2024-01-30T13:21:22;13.60;1.00
21207;DHT22;10761;48.532;8.026;2024-01-30T13:23:48;13.60;1.00
21207;DHT22;10761;48.532;8.026;2024-01-30T13:26:18;13.70;1.00
21207;DHT22;10761;48.532;8.026;2024-01-30T13:28:44;13.90;1.00
21207;DHT22;10761;48.532;8.026;2024-01-30T13:31:09;14.10;1.00
21207;DHT22;10761;48.532;8.026;2024-01-30T13:33:35;14.20;1.00
21207;DHT22;10761;48.532;8.026;2024-01-30T13:36:01;14.20;99.90
21207;DHT22;10761;48.532;8.026;2024-01-30T13:38:26;14.30;1.00
21207;DHT22;10761;48.532;8.026;2024-01-30T13:40:52;14.40;1.00
21207;DHT22;10761;48.532;8.026;2024-01-30T13:43:17;14.30;99.90
21207;DHT22;10761;48.532;8.026;2024-01-30T13:45:43;13.90;1.00
21207;DHT22;10761;48.532;8.026;2024-01-30T13:48:09;13.80;1.00
21207;DHT22;10761;48.532;8.026;2024-01-30T13:50:34;13.50;1.00
21207;DHT22;10761;48.532;8.026;2024-01-30T13:53:01;13.40;1.00
21207;DHT22;10761;48.532;8.026;2024-01-30T13:55:27;13.30;1.00
21207;DHT22;10761;48.532;8.026;2024-01-30T13:57:52;13.20;1.00
21207;DHT22;10761;48.532;8.026;2024-01-30T14:00:18;13.10;1.00
21207;DHT22;10761;48.532;8.026;2024-01-30T14:02:44;13.00;1.00
21207;DHT22;10761;48.532;8.026;2024-01-30T14:05:09;13.00;1.00
21207;DHT22;10761;48.532;8.026;2024-01-30T14:07:35;12.90;1.00
21207;DHT22;10761;48.532;8.026;2024-01-30T14:10:03;12.90;1.00
21207;DHT22;10761;48.532;8.026;2024-01-30T14:12:29;12.90;1.00
21207;DHT22;10761;48.532;8.026;2024-01-30T14:14:55;12.90;1.00
21207;DHT22;10761;48.532;8.026;2024-01-30T14:17:21;12.90;1.00
21207;DHT22;10761;48.532;8.026;2024-01-30T14:19:46;12.90;1.00
21207;DHT22;10761;48.532;8.026;2024-01-30T14:22:12;12.80;1.00
21207;DHT22;10761;48.532;8.026;2024-01-30T14:24:38;12.90;1.00
21207;DHT22;10761;48.532;8.026;2024-01-30T14:27:03;12.80;1.00
21207;DHT22;10761;48.532;8.026;2024-01-30T14:29:29;12.90;1.00
21207;DHT22;10761;48.532;8.026;2024-01-30T14:31:55;12.80;1.00
21207;DHT22;10761;48.532;8.026;2024-01-30T14:34:21;12.90;1.00
21207;DHT22;10761;48.532;8.026;2024-01-30T14:36:47;12.90;1.00
21207;DHT22;10761;48.532;8.026;2024-01-30T14:39:12;12.90;1.00
21207;DHT22;10761;48.532;8.026;2024-01-30T14:41:38;12.90;1.00
21207;DHT22;10761;48.532;8.026;2024-01-30T14:44:03;12.70;1.00
21207;DHT22;10761;48.532;8.026;2024-01-30T14:46:30;12.60;1.00
21207;DHT22;10761;48.532;8.026;2024-01-30T14:48:56;12.60;1.00
21207;DHT22;10761;48.532;8.026;2024-01-30T14:51:23;12.50;1.00
21207;DHT22;10761;48.532;8.026;2024-01-30T14:53:48;12.50;15.00
21207;DHT22;10761;48.532;8.026;2024-01-30T14:56:14;12.50;94.80
21207;DHT22;10761;48.532;8.026;2024-01-30T14:58:40;12.50;99.90
21207;DHT22;10761;48.532;8.026;2024-01-30T15:01:05;12.40;99.90
21207;DHT22;10761;48.532;8.026;2024-01-30T15:03:31;12.40;99.90
21207;DHT22;10761;48.532;8.026;2024-01-30T15:05:56;12.40;99.90
21207;DHT22;10761;48.532;8.026;2024-01-30T15:08:22;12.30;99.90
21207;DHT22;10761;48.532;8.026;2024-01-30T15:10:48;12.20;99.90
21207;DHT22;10761;48.532;8.026;2024-01-30T15:13:15;12.10;99.90
21207;DHT22;10761;48.532;8.026;2024-01-30T15:15:41;12.00;99.90
21207;DHT22;10761;48.532;8.026;2024-01-30T15:18:08;11.90;99.90
21207;DHT22;10761;48.532;8.026;2024-01-30T15:20:36;11.90;99.90
21207;DHT22;10761;48.532;8.026;2024-01-30T15:23:02;11.80;99.90
21207;DHT22;10761;48.532;8.026;2024-01-30T15:25:28;11.90;1.00
21207;DHT22;10761;48.532;8.026;2024-01-30T15:27:54;11.90;1.00
21207;DHT22;10761;48.532;8.026;2024-01-30T15:30:20;11.90;1.00
21207;DHT22;10761;48.532;8.026;2024-01-30T15:32:46;11.90;1.00
21207;DHT22;10761;48.532;8.026;2024-01-30T15:35:12;11.80;99.90
21207;DHT22;10761;48.532;8.026;2024-01-30T15:37:38;11.80;1.00
21207;DHT22;10761;48.532;8.026;2024-01-30T15:40:04;11.70;99.90